Airfield :
LOGIN :

Register | Disclaimer

   EN    FR    IT 

 










Legend :    VFR   Marginal VFR   IFR   Intensive IFR   Very Intensive IFR
Visi :
Ceiling :
>= 8 km
>= 3000ft
5 to 8 km
1000 to 3000 ft
1500m to 5 km
500 to 1000 ft
800 to 1500m
200 to 500 ft
< 800m
< 200 ft
Symbols :   Thunderstorms  Fog  Heavy snow  Heavy precipitations  Wind > 20 kt
SIGMETs :     Misc.  Thunderstorms  Icing  Turbulence  Mountain Waves  Volcanic Ashes







- Airport Elevation : 1460 ft


LSMA - Alpnach

CURRENT METAR :
  • 210350Z AUTO 19005KT 6000NDV FEW011 BKN013 M01/M02 Q1010 RMK

EXPIRED METARs :
  • 210320Z AUTO 21004KT 5000NDV BKN012 BKN015 M02/M03 Q1009 RMK
  • 210250Z AUTO 20003KT 5000NDV SCT011 M03/M04 Q1009 RMK
  • 210220Z AUTO VRB01KT 6000NDV FEW008 M02/M03 Q1008 RMK
  • 210150Z AUTO VRB02KT 5000NDV FEW008 M03/M04 Q1008 RMK
  • 210120Z AUTO 19004KT 5000NDV NCD M03/M04 Q1008 RMK

Expired Forecast.
No reported NOTAMs for that airfield.



MET'MAP, your aeronautical weather chart ! - Copyright ORBIFLY December 2007 - Disclaimer

ORBIFLY MET'MAP TEAM :

Programming & Development : Alexandra Zaïnal
Concept & Development : Baudouin d'Aumeries
Co-Development & Prog : Marc-Olivier Méhu
Technical & hardware support : Manuel Goepfert

Contact : metmap@orbifly.com




SOURCES & CREDITS :

   NOAA